Time;durP1;ratioP1;P1;durP2;ratioP2;P2;SDS_P1;SDS_P2;PMS_P1;PMS_P2;Temp;Humidity;BMP_temperature;BMP_pressure;BME280_temperature;BME280_humidity;BME280_pressure;Samples;Min_cycle;Max_cycle;Signal;HPM_P1;HPM_P2
2021/10/30 00:00:32;;;;;;;14.73;9.82;;;12.50;99.90;;;;;;5021843;28;21107;-85
2021/10/30 00:03:00;;;;;;;16.48;10.38;;;12.40;99.90;;;;;;5040349;28;20181;-85
2021/10/30 00:05:29;;;;;;;16.88;9.85;;;12.40;99.90;;;;;;5009287;28;20065;-85
2021/10/30 00:07:58;;;;;;;17.00;9.82;;;12.30;99.90;;;;;;5039358;28;20028;-86
2021/10/30 00:10:24;;;;;;;13.43;9.60;;;12.30;99.90;;;;;;5027613;28;20068;-85
2021/10/30 00:12:50;;;;;;;15.68;10.23;;;12.30;99.90;;;;;;5046490;28;20127;-84
2021/10/30 00:15:16;;;;;;;14.10;10.23;;;12.20;99.90;;;;;;5036553;28;20421;-85
2021/10/30 00:17:42;;;;;;;13.48;10.32;;;12.20;99.90;;;;;;4995394;28;20051;-85
2021/10/30 00:20:08;;;;;;;17.25;10.75;;;12.20;99.90;;;;;;5016874;28;20817;-85
2021/10/30 00:22:34;;;;;;;15.43;10.20;;;12.20;99.90;;;;;;4978631;28;20076;-86
2021/10/30 00:25:00;;;;;;;11.65;9.60;;;12.10;99.90;;;;;;5025471;28;20041;-85
2021/10/30 00:27:26;;;;;;;14.23;10.32;;;12.10;99.90;;;;;;5010094;28;20487;-84
2021/10/30 00:29:52;;;;;;;15.88;10.15;;;12.00;99.90;;;;;;5019562;28;20032;-84
2021/10/30 00:32:18;;;;;;;14.80;10.57;;;12.00;99.90;;;;;;5010115;28;20041;-84
2021/10/30 00:34:44;;;;;;;16.48;10.75;;;12.00;99.90;;;;;;5013380;28;20048;-84
2021/10/30 00:37:13;;;;;;;15.40;11.45;;;11.90;99.90;;;;;;5038537;28;20097;-86
2021/10/30 00:39:41;;;;;;;13.55;11.15;;;11.90;99.90;;;;;;5028956;28;20049;-85
2021/10/30 00:42:07;;;;;;;16.45;11.23;;;11.90;99.90;;;;;;5020066;28;20033;-85
2021/10/30 00:44:33;;;;;;;15.50;11.52;;;11.90;99.90;;;;;;5045914;28;22070;-85
2021/10/30 00:47:00;;;;;;;16.70;11.45;;;11.90;99.90;;;;;;5022536;28;20162;-85
2021/10/30 00:49:27;;;;;;;16.17;10.90;;;11.90;99.90;;;;;;5020433;28;20043;-83
2021/10/30 00:51:56;;;;;;;18.20;11.32;;;11.80;99.90;;;;;;4999295;28;20041;-84
2021/10/30 00:54:24;;;;;;;16.42;10.82;;;11.80;99.90;;;;;;5030010;28;20123;-85
2021/10/30 00:56:53;;;;;;;19.80;10.43;;;11.80;99.90;;;;;;5017873;28;20036;-84
2021/10/30 00:59:20;;;;;;;15.20;10.40;;;11.70;99.90;;;;;;5022842;28;20060;-85
2021/10/30 01:01:49;;;;;;;15.57;9.95;;;11.70;99.90;;;;;;5020846;28;20076;-85
2021/10/30 01:04:17;;;;;;;12.82;10.40;;;11.70;99.90;;;;;;5051987;28;20427;-85
2021/10/30 01:06:45;;;;;;;16.27;10.00;;;11.70;99.90;;;;;;5032664;28;21507;-83
2021/10/30 01:09:13;;;;;;;15.65;9.75;;;11.70;99.90;;;;;;5044254;28;20110;-86
2021/10/30 01:11:43;;;;;;;20.27;10.40;;;11.70;99.90;;;;;;5004461;28;20059;-84
2021/10/30 01:14:10;;;;;;;16.80;10.10;;;11.70;99.90;;;;;;5028972;28;20032;-85
2021/10/30 01:16:36;;;;;;;15.00;10.32;;;11.70;99.90;;;;;;5036152;28;20652;-84
2021/10/30 01:19:02;;;;;;;13.20;10.48;;;11.70;99.90;;;;;;5006898;28;20052;-85
2021/10/30 01:21:30;;;;;;;14.15;10.60;;;11.60;99.90;;;;;;5033122;28;20652;-83
2021/10/30 01:23:56;;;;;;;12.23;9.45;;;11.70;99.90;;;;;;5043423;28;20171;-85
2021/10/30 01:26:23;;;;;;;15.27;9.57;;;11.60;99.90;;;;;;5014915;28;20045;-84
2021/10/30 01:28:50;;;;;;;12.57;10.23;;;11.60;99.90;;;;;;5021450;28;20028;-84
2021/10/30 01:31:21;;;;;;;16.65;10.32;;;11.60;99.90;;;;;;4993606;28;20471;-85
2021/10/30 01:33:48;;;;;;;15.77;10.77;;;11.60;99.90;;;;;;5020553;28;20682;-85
2021/10/30 01:36:15;;;;;;;17.08;10.23;;;11.60;99.90;;;;;;5020309;28;20048;-85
2021/10/30 01:38:42;;;;;;;11.23;8.63;;;11.60;99.90;;;;;;5034223;28;21047;-85
2021/10/30 01:41:08;;;;;;;13.90;9.98;;;11.60;99.90;;;;;;5040043;28;20122;-85
2021/10/30 01:43:35;;;;;;;15.15;10.13;;;11.50;99.90;;;;;;5015492;28;20499;-85
2021/10/30 01:46:01;;;;;;;13.55;9.48;;;11.50;99.90;;;;;;5013133;28;20037;-85
2021/10/30 01:48:31;;;;;;;13.75;10.07;;;11.50;99.90;;;;;;5034036;28;20398;-86
2021/10/30 01:50:57;;;;;;;15.95;10.05;;;11.50;99.90;;;;;;5023378;28;20098;-85
2021/10/30 01:53:23;;;;;;;17.15;10.65;;;11.50;99.90;;;;;;5005688;28;20663;-85
2021/10/30 01:55:49;;;;;;;14.10;10.00;;;11.40;99.90;;;;;;5011192;28;20526;-85
2021/10/30 01:58:16;;;;;;;16.85;10.55;;;11.40;99.90;;;;;;5006768;28;20071;-85
2021/10/30 02:00:43;;;;;;;12.82;9.93;;;11.40;99.90;;;;;;5011569;28;20051;-85
2021/10/30 02:03:10;;;;;;;18.02;10.23;;;11.40;99.90;;;;;;5018298;28;20654;-87
2021/10/30 02:05:36;;;;;;;17.90;11.23;;;11.40;99.90;;;;;;5027170;28;20049;-85
2021/10/30 02:08:03;;;;;;;15.43;11.43;;;11.40;99.90;;;;;;5041710;28;20039;-86
2021/10/30 02:10:29;;;;;;;16.13;11.30;;;11.40;99.90;;;;;;5039806;28;20049;-85
2021/10/30 02:12:56;;;;;;;14.15;11.18;;;11.40;99.90;;;;;;5019029;28;20043;-86
2021/10/30 02:15:22;;;;;;;15.88;10.77;;;11.40;99.90;;;;;;5020761;28;20048;-85
2021/10/30 02:17:48;;;;;;;15.50;10.55;;;11.30;99.90;;;;;;5031907;28;20048;-84
2021/10/30 02:20:14;;;;;;;14.77;11.55;;;11.30;99.90;;;;;;5022355;28;20174;-86
2021/10/30 02:22:40;;;;;;;19.55;11.43;;;11.30;99.90;;;;;;5023088;28;20040;-85
2021/10/30 02:25:08;;;;;;;18.85;12.15;;;11.40;99.90;;;;;;5003233;28;20072;-84
2021/10/30 02:27:34;;;;;;;20.42;10.82;;;11.40;99.90;;;;;;5038592;28;20174;-86
2021/10/30 02:30:00;;;;;;;16.63;11.48;;;11.30;99.90;;;;;;5025371;28;20097;-85
2021/10/30 02:32:26;;;;;;;14.55;10.52;;;11.40;99.90;;;;;;5045824;28;21045;-84
2021/10/30 02:34:52;;;;;;;16.95;11.27;;;11.30;99.90;;;;;;5024225;28;20295;-85
2021/10/30 02:37:18;;;;;;;18.73;12.05;;;11.30;99.90;;;;;;5021082;28;20077;-84
2021/10/30 02:39:44;;;;;;;18.08;11.85;;;11.30;99.90;;;;;;5019699;28;20046;-85
2021/10/30 02:42:12;;;;;;;18.90;11.38;;;11.30;99.90;;;;;;5013094;28;20052;-85
2021/10/30 02:44:39;;;;;;;18.73;11.63;;;11.20;99.90;;;;;;5011199;28;20553;-85
2021/10/30 02:47:04;;;;;;;19.98;10.85;;;11.20;99.90;;;;;;5047772;28;20033;-84
2021/10/30 02:49:31;;;;;;;15.45;11.07;;;11.20;99.90;;;;;;5028482;28;20387;-84
2021/10/30 02:51:58;;;;;;;18.55;11.52;;;11.20;99.90;;;;;;5048861;28;20063;-85
2021/10/30 02:54:23;;;;;;;20.27;12.45;;;11.20;99.90;;;;;;5009301;28;20041;-84
2021/10/30 02:56:49;;;;;;;21.45;12.05;;;11.20;99.90;;;;;;5006299;28;20043;-85
2021/10/30 02:59:15;;;;;;;15.98;12.10;;;11.20;99.90;;;;;;5008942;28;20226;-84
2021/10/30 03:01:41;;;;;;;18.58;12.57;;;11.20;99.90;;;;;;5011301;28;20429;-85
2021/10/30 03:04:07;;;;;;;18.15;13.27;;;11.20;99.90;;;;;;5039689;28;20387;-85
2021/10/30 03:06:32;;;;;;;18.45;13.23;;;11.20;99.90;;;;;;5000447;28;20155;-84
2021/10/30 03:08:59;;;;;;;20.02;14.45;;;11.20;99.90;;;;;;5020291;28;20185;-84
2021/10/30 03:11:25;;;;;;;23.08;14.68;;;11.20;99.90;;;;;;5049534;28;20047;-84
2021/10/30 03:13:51;;;;;;;25.55;15.40;;;11.20;99.90;;;;;;5040881;28;20040;-84
2021/10/30 03:16:17;;;;;;;23.70;16.33;;;11.10;99.90;;;;;;5022249;28;20294;-85
2021/10/30 03:18:43;;;;;;;26.30;14.63;;;11.20;99.90;;;;;;5038734;28;20075;-84
2021/10/30 03:21:09;;;;;;;28.48;16.27;;;11.20;99.90;;;;;;5018706;28;20121;-85
2021/10/30 03:23:35;;;;;;;23.67;16.10;;;11.20;99.90;;;;;;4991342;28;20417;-84
2021/10/30 03:26:01;;;;;;;22.60;16.80;;;11.20;99.90;;;;;;4990613;28;20815;-85
2021/10/30 03:28:27;;;;;;;26.63;16.10;;;11.10;99.90;;;;;;5000473;28;20135;-85
2021/10/30 03:30:53;;;;;;;24.73;16.13;;;11.20;99.90;;;;;;5022551;28;20053;-84
2021/10/30 03:33:18;;;;;;;31.85;16.70;;;11.10;99.90;;;;;;5023428;28;20807;-85
2021/10/30 03:35:44;;;;;;;39.83;16.75;;;11.20;99.90;;;;;;5030315;28;20127;-85
2021/10/30 03:38:10;;;;;;;28.08;16.77;;;11.10;99.90;;;;;;5000865;28;20651;-85
2021/10/30 03:40:36;;;;;;;36.60;16.83;;;11.10;99.90;;;;;;4998636;28;20044;-85
2021/10/30 03:43:02;;;;;;;27.75;17.27;;;11.10;99.90;;;;;;5006705;28;20570;-85
2021/10/30 03:45:27;;;;;;;26.60;17.10;;;11.10;99.90;;;;;;4995525;28;20062;-85
2021/10/30 03:47:53;;;;;;;28.70;17.88;;;11.10;99.90;;;;;;5018851;28;20561;-85
2021/10/30 03:50:19;;;;;;;40.38;17.95;;;11.10;99.90;;;;;;5000414;28;20037;-84
2021/10/30 03:52:45;;;;;;;30.70;18.02;;;11.00;99.90;;;;;;5001004;28;20097;-84
2021/10/30 03:55:11;;;;;;;30.30;19.40;;;11.10;99.90;;;;;;4996100;28;20044;-84
2021/10/30 03:57:37;;;;;;;30.45;20.67;;;11.00;99.90;;;;;;5033667;28;20044;-85
2021/10/30 04:00:07;;;;;;;33.58;20.52;;;11.00;99.90;;;;;;5006342;28;20083;-85
2021/10/30 04:02:33;;;;;;;37.45;20.92;;;11.00;99.90;;;;;;4996642;28;20040;-85
2021/10/30 04:04:59;;;;;;;38.92;21.58;;;11.00;99.90;;;;;;5012651;28;20419;-84
2021/10/30 04:07:24;;;;;;;48.20;23.35;;;11.00;99.90;;;;;;5024452;28;20399;-84
2021/10/30 04:09:50;;;;;;;42.45;23.20;;;11.10;99.90;;;;;;5011583;28;20036;-85
2021/10/30 04:12:16;;;;;;;33.40;22.75;;;11.10;99.90;;;;;;5021498;28;20033;-84
2021/10/30 04:14:42;;;;;;;38.05;24.23;;;11.10;99.90;;;;;;5021524;28;20594;-85
2021/10/30 04:17:07;;;;;;;38.03;23.75;;;11.10;99.90;;;;;;5021970;28;20219;-84
2021/10/30 04:19:33;;;;;;;44.55;23.58;;;11.10;99.90;;;;;;4996193;28;20033;-85
2021/10/30 04:21:59;;;;;;;37.83;23.80;;;11.10;99.90;;;;;;5034959;28;20132;-85
2021/10/30 04:24:25;;;;;;;40.42;24.88;;;11.10;99.90;;;;;;5008466;28;20047;-84
2021/10/30 04:26:51;;;;;;;37.67;22.20;;;11.10;99.90;;;;;;5019382;28;20053;-84
2021/10/30 04:29:16;;;;;;;39.10;23.98;;;11.10;99.90;;;;;;5002927;28;20469;-84
2021/10/30 04:31:43;;;;;;;40.03;24.23;;;11.10;99.90;;;;;;5019329;28;20051;-85
2021/10/30 04:34:18;;;;;;;34.08;24.00;;;11.20;99.90;;;;;;5026191;28;20040;-85
2021/10/30 04:36:45;;;;;;;39.63;22.83;;;11.20;99.90;;;;;;5012187;28;20044;-85
2021/10/30 04:39:11;;;;;;;42.72;22.17;;;11.20;99.90;;;;;;5038270;28;20063;-85
2021/10/30 04:41:38;;;;;;;43.85;24.17;;;11.20;99.90;;;;;;5011000;28;20885;-84
2021/10/30 04:44:05;;;;;;;39.42;22.85;;;11.20;99.90;;;;;;5022821;28;20174;-85
2021/10/30 04:46:31;;;;;;;39.08;23.77;;;11.20;99.90;;;;;;4982022;28;20067;-84
2021/10/30 04:48:57;;;;;;;36.85;23.20;;;11.10;99.90;;;;;;5032196;28;20439;-85
2021/10/30 04:51:23;;;;;;;34.72;22.63;;;11.10;99.90;;;;;;5039266;28;20111;-84
2021/10/30 04:53:49;;;;;;;42.90;24.88;;;11.10;99.90;;;;;;5039185;28;20110;-84
2021/10/30 04:56:15;;;;;;;41.13;25.40;;;11.10;99.90;;;;;;5004954;28;20495;-84
2021/10/30 04:58:43;;;;;;;36.75;24.05;;;11.10;99.90;;;;;;5020784;28;20499;-85
2021/10/30 05:01:14;;;;;;;37.75;23.73;;;11.10;99.90;;;;;;4983981;28;20770;-85
2021/10/30 05:03:40;;;;;;;36.67;24.30;;;11.10;99.90;;;;;;5016744;28;20079;-84
2021/10/30 05:06:06;;;;;;;43.95;24.67;;;11.10;99.90;;;;;;5029328;28;20255;-84
2021/10/30 05:08:33;;;;;;;38.00;24.75;;;11.10;99.90;;;;;;5039494;28;20028;-84
2021/10/30 05:10:59;;;;;;;41.33;24.75;;;11.10;99.90;;;;;;5008148;28;20178;-85
2021/10/30 05:13:24;;;;;;;38.20;25.00;;;11.10;99.90;;;;;;5033434;28;20032;-85
2021/10/30 05:15:50;;;;;;;37.42;23.65;;;11.10;99.90;;;;;;4992728;28;24281;-85
2021/10/30 05:18:16;;;;;;;38.35;23.85;;;11.10;99.90;;;;;;5014571;28;20048;-84
2021/10/30 05:20:42;;;;;;;35.55;23.10;;;11.20;99.90;;;;;;5019321;28;20071;-84
2021/10/30 05:23:08;;;;;;;31.40;21.80;;;11.20;99.90;;;;;;5034665;28;20873;-83
2021/10/30 05:25:35;;;;;;;34.38;21.48;;;11.20;99.90;;;;;;4992440;28;20033;-85
2021/10/30 05:28:00;;;;;;;36.10;21.40;;;11.20;99.90;;;;;;5021851;28;20123;-84
2021/10/30 05:30:26;;;;;;;33.28;21.35;;;11.20;99.90;;;;;;5015997;28;20029;-85
2021/10/30 05:32:52;;;;;;;36.58;21.10;;;11.20;99.90;;;;;;5022978;28;20114;-83
2021/10/30 05:35:18;;;;;;;28.65;19.17;;;11.20;99.90;;;;;;5019444;28;20123;-84
2021/10/30 05:37:44;;;;;;;29.55;19.77;;;11.20;99.90;;;;;;5015183;28;20068;-85
2021/10/30 05:40:11;;;;;;;26.75;18.30;;;11.20;99.90;;;;;;5033364;28;20033;-84
2021/10/30 05:42:41;;;;;;;33.78;18.58;;;11.20;99.90;;;;;;5020320;28;20114;-85
2021/10/30 05:45:10;;;;;;;31.73;18.35;;;11.20;99.90;;;;;;5029996;28;20434;-85
2021/10/30 05:47:37;;;;;;;27.55;17.50;;;11.20;99.90;;;;;;5035913;28;20072;-85
2021/10/30 05:50:05;;;;;;;26.35;17.45;;;11.20;99.90;;;;;;5047271;28;20041;-84
2021/10/30 05:52:31;;;;;;;24.55;16.65;;;11.20;99.90;;;;;;5002896;28;20037;-85
2021/10/30 05:54:57;;;;;;;27.50;17.42;;;11.20;99.90;;;;;;5027238;28;20102;-83
2021/10/30 05:57:24;;;;;;;23.98;16.42;;;11.20;99.90;;;;;;5012382;28;20503;-83
2021/10/30 05:59:49;;;;;;;29.67;17.13;;;11.20;99.90;;;;;;5017004;28;20131;-84
2021/10/30 06:02:15;;;;;;;31.05;17.27;;;11.20;99.90;;;;;;5002068;28;20045;-85
2021/10/30 06:04:42;;;;;;;29.30;14.32;;;11.20;99.90;;;;;;5030279;28;20101;-83
2021/10/30 06:07:09;;;;;;;22.00;14.30;;;11.20;99.90;;;;;;5023014;28;20200;-83
2021/10/30 06:09:35;;;;;;;22.02;14.73;;;11.20;99.90;;;;;;5009492;28;20479;-84
2021/10/30 06:12:01;;;;;;;22.42;14.48;;;11.20;99.90;;;;;;5020401;28;20044;-85
2021/10/30 06:14:27;;;;;;;25.00;13.57;;;11.20;99.90;;;;;;5000742;28;22073;-83
2021/10/30 06:16:53;;;;;;;24.52;14.32;;;11.20;99.90;;;;;;5021429;28;20043;-84
2021/10/30 06:19:19;;;;;;;21.55;13.75;;;11.20;99.90;;;;;;5048253;28;20290;-85
2021/10/30 06:21:45;;;;;;;20.92;13.63;;;11.20;99.90;;;;;;5003301;28;20812;-84
2021/10/30 06:24:11;;;;;;;20.92;12.23;;;11.20;99.90;;;;;;5032511;28;20128;-84
2021/10/30 06:26:37;;;;;;;21.08;12.10;;;11.20;99.90;;;;;;5023046;28;20542;-84
2021/10/30 06:29:03;;;;;;;23.95;12.63;;;11.20;99.90;;;;;;4999993;28;20036;-83
2021/10/30 06:31:29;;;;;;;18.35;11.73;;;11.20;99.90;;;;;;4998578;28;20376;-84
2021/10/30 06:33:55;;;;;;;21.77;12.20;;;11.20;99.90;;;;;;5014534;28;20036;-83
2021/10/30 06:36:21;;;;;;;15.48;10.85;;;11.20;99.90;;;;;;5006765;28;20416;-84
2021/10/30 06:38:49;;;;;;;22.73;11.93;;;11.30;99.90;;;;;;5042269;28;20426;-84
2021/10/30 06:41:15;;;;;;;19.13;10.55;;;11.20;99.90;;;;;;5043342;28;20044;-83
2021/10/30 06:43:43;;;;;;;19.10;10.85;;;11.20;99.90;;;;;;5003421;28;20138;-84
2021/10/30 06:46:09;;;;;;;21.70;10.50;;;11.20;99.90;;;;;;5036145;28;20036;-84
2021/10/30 06:48:36;;;;;;;16.67;9.40;;;11.30;99.90;;;;;;4987216;28;20399;-85
2021/10/30 06:51:04;;;;;;;17.15;9.52;;;11.30;99.90;;;;;;5007184;28;20482;-85
2021/10/30 06:53:29;;;;;;;15.70;9.73;;;11.30;99.90;;;;;;5040382;28;20112;-84
2021/10/30 06:55:58;;;;;;;13.80;9.15;;;11.30;99.90;;;;;;5028816;28;20068;-85
2021/10/30 06:58:28;;;;;;;18.55;9.70;;;11.40;99.90;;;;;;5047799;28;20052;-87
2021/10/30 07:00:55;;;;;;;15.30;9.23;;;11.40;99.90;;;;;;5029959;28;20637;-84
2021/10/30 07:03:21;;;;;;;18.05;9.75;;;11.40;99.90;;;;;;5031091;28;20123;-83
2021/10/30 07:05:47;;;;;;;16.27;8.80;;;11.50;99.90;;;;;;5013227;28;20040;-84
2021/10/30 07:08:13;;;;;;;11.20;8.73;;;11.50;99.90;;;;;;5036986;28;20178;-83
2021/10/30 07:10:42;;;;;;;12.82;8.10;;;11.50;99.90;;;;;;5025690;28;20656;-84
2021/10/30 07:13:08;;;;;;;14.50;8.48;;;11.50;99.90;;;;;;5010518;28;20492;-83
2021/10/30 07:15:33;;;;;;;13.73;8.60;;;11.50;99.90;;;;;;4996225;28;20032;-82
2021/10/30 07:17:59;;;;;;;12.75;8.80;;;11.60;99.90;;;;;;5015569;28;20180;-83
2021/10/30 07:20:25;;;;;;;14.75;9.35;;;11.60;99.90;;;;;;5046816;28;20036;-84
2021/10/30 07:22:51;;;;;;;14.90;9.05;;;11.60;99.90;;;;;;5029374;28;20097;-84
2021/10/30 07:25:22;;;;;;;15.95;8.98;;;11.60;99.90;;;;;;5068769;28;20397;-83
2021/10/30 07:27:50;;;;;;;17.98;9.88;;;11.60;99.90;;;;;;5044531;28;20040;-84
2021/10/30 07:30:16;;;;;;;15.10;9.32;;;11.60;99.90;;;;;;5029329;28;20043;-85
2021/10/30 07:32:43;;;;;;;19.48;10.32;;;11.50;99.90;;;;;;5029802;28;20049;-84
2021/10/30 07:35:09;;;;;;;17.83;9.63;;;11.50;99.90;;;;;;5045497;28;20123;-83
2021/10/30 07:37:36;;;;;;;17.27;9.98;;;11.50;99.90;;;;;;5030879;28;20052;-84
2021/10/30 07:40:02;;;;;;;16.33;10.50;;;11.50;99.90;;;;;;5020889;28;20078;-83
2021/10/30 07:42:37;;;;;;;18.25;9.85;;;11.50;99.90;;;;;;5012996;28;20109;-85
2021/10/30 07:45:07;;;;;;;16.58;10.50;;;11.40;99.90;;;;;;5025715;28;20163;-86
2021/10/30 07:47:33;;;;;;;23.00;11.40;;;11.40;99.90;;;;;;4929329;28;20046;-85
2021/10/30 07:49:58;;;;;;;19.65;11.80;;;11.40;99.90;;;;;;4971226;28;20041;-84
2021/10/30 07:52:24;;;;;;;21.45;11.20;;;11.40;99.90;;;;;;5006157;28;20038;-84
2021/10/30 07:54:50;;;;;;;16.20;10.73;;;11.30;99.90;;;;;;5014772;28;20045;-85
2021/10/30 07:57:19;;;;;;;18.17;11.18;;;11.30;99.90;;;;;;4974281;28;21811;-83
2021/10/30 07:59:50;;;;;;;20.98;12.43;;;11.30;99.90;;;;;;4976755;28;20068;-85
2021/10/30 08:02:18;;;;;;;23.52;12.57;;;11.30;99.90;;;;;;4977235;28;20228;-83
2021/10/30 08:04:44;;;;;;;18.35;11.45;;;11.30;99.90;;;;;;5008873;28;20545;-83
2021/10/30 08:07:13;;;;;;;25.00;12.85;;;11.20;99.90;;;;;;4979036;28;20503;-85
2021/10/30 08:09:41;;;;;;;19.92;11.55;;;11.20;99.90;;;;;;4974194;28;20036;-83
2021/10/30 08:12:08;;;;;;;17.17;12.13;;;11.20;99.90;;;;;;4990975;28;20354;-84
2021/10/30 08:14:34;;;;;;;19.20;12.57;;;11.20;99.90;;;;;;4966906;28;20045;-83
2021/10/30 08:17:00;;;;;;;22.83;12.70;;;11.20;99.90;;;;;;4964998;28;20716;-84
2021/10/30 08:19:25;;;;;;;34.00;13.90;;;11.20;99.90;;;;;;4979105;28;20048;-83
2021/10/30 08:21:52;;;;;;;21.65;11.50;;;11.20;99.90;;;;;;4978601;28;20499;-83
2021/10/30 08:24:18;;;;;;;23.30;12.73;;;11.20;99.90;;;;;;4972983;28;20136;-82
2021/10/30 08:26:44;;;;;;;17.67;11.85;;;11.20;99.90;;;;;;4986992;28;20450;-87
2021/10/30 08:29:10;;;;;;;21.23;12.15;;;11.20;99.90;;;;;;4964671;28;20038;-86
2021/10/30 08:31:38;;;;;;;28.20;14.40;;;11.20;99.90;;;;;;5000231;28;20819;-87
2021/10/30 08:34:04;;;;;;;19.50;13.40;;;11.20;99.90;;;;;;5005308;28;20478;-86
2021/10/30 08:36:30;;;;;;;24.67;13.52;;;11.20;99.90;;;;;;4984803;28;20176;-86
2021/10/30 08:38:56;;;;;;;25.52;13.75;;;11.20;99.90;;;;;;4987170;28;20030;-84
2021/10/30 08:41:22;;;;;;;20.45;13.25;;;11.20;99.90;;;;;;5018331;28;20056;-86
2021/10/30 08:43:49;;;;;;;27.85;14.00;;;11.20;99.90;;;;;;5002709;28;20041;-81
2021/10/30 08:46:15;;;;;;;26.95;15.30;;;11.20;99.90;;;;;;4962349;28;20058;-84
2021/10/30 08:48:43;;;;;;;28.65;14.35;;;11.20;99.90;;;;;;4983739;28;20034;-85
2021/10/30 08:51:09;;;;;;;20.77;13.50;;;11.20;99.90;;;;;;4997076;28;20041;-83
2021/10/30 08:53:35;;;;;;;31.95;17.35;;;11.20;99.90;;;;;;4980383;28;20041;-83
2021/10/30 08:56:03;;;;;;;29.20;15.48;;;11.20;99.90;;;;;;4981754;28;20092;-85
2021/10/30 08:58:30;;;;;;;31.83;16.52;;;11.20;99.90;;;;;;4990926;28;20034;-83
2021/10/30 09:01:03;;;;;;;24.58;15.55;;;11.20;99.90;;;;;;4986464;28;20523;-84
2021/10/30 09:03:29;;;;;;;33.50;16.70;;;11.20;99.90;;;;;;4992016;28;20042;-84
2021/10/30 09:05:58;;;;;;;35.40;15.15;;;11.20;99.90;;;;;;4975877;28;20045;-85
2021/10/30 09:08:28;;;;;;;30.52;15.90;;;11.20;99.90;;;;;;4992259;28;20041;-85
2021/10/30 09:10:57;;;;;;;31.45;15.82;;;11.20;99.90;;;;;;5008068;28;20480;-83
2021/10/30 09:13:30;;;;;;;27.65;16.05;;;11.20;99.90;;;;;;4999754;28;20090;-83
2021/10/30 09:15:57;;;;;;;28.63;16.58;;;11.30;99.90;;;;;;4998586;28;20049;-84
2021/10/30 09:18:27;;;;;;;27.95;16.30;;;11.30;99.90;;;;;;5025227;28;20373;-84
2021/10/30 09:20:54;;;;;;;30.00;15.98;;;11.30;99.90;;;;;;5025325;28;20038;-86
2021/10/30 09:23:20;;;;;;;23.42;13.88;;;11.40;99.90;;;;;;5003880;28;20416;-84
2021/10/30 09:26:03;;;;;;;21.70;13.98;;;11.40;99.90;;;;;;4998264;28;20042;-85
2021/10/30 09:28:33;;;;;;;20.45;13.77;;;11.40;99.90;;;;;;4986415;28;20045;-84
2021/10/30 09:31:11;;;;;;;21.25;14.00;;;11.50;99.90;;;;;;4991391;28;20734;-86
2021/10/30 09:33:49;;;;;;;23.67;14.57;;;11.50;99.90;;;;;;4987481;28;20500;-86
2021/10/30 09:36:15;;;;;;;20.20;13.68;;;11.50;99.90;;;;;;5006188;28;20110;-86
2021/10/30 09:39:06;;;;;;;30.85;14.35;;;11.50;99.90;;;;;;4989579;28;20072;-84
2021/10/30 09:41:33;;;;;;;30.65;14.85;;;11.50;99.90;;;;;;4992111;28;20065;-84
2021/10/30 09:44:06;;;;;;;21.45;13.90;;;11.60;99.90;;;;;;4990471;28;20073;-84
2021/10/30 09:46:52;;;;;;;19.55;13.00;;;11.60;99.90;;;;;;5021866;28;20110;-84
2021/10/30 09:49:24;;;;;;;25.98;15.38;;;11.60;99.90;;;;;;4998153;28;20072;-84
2021/10/30 09:51:53;;;;;;;20.70;13.55;;;11.70;99.90;;;;;;4990836;28;20434;-86
2021/10/30 09:54:35;;;;;;;25.35;13.52;;;11.80;99.90;;;;;;4991013;28;20045;-83
2021/10/30 09:57:02;;;;;;;21.48;13.18;;;11.80;99.90;;;;;;5005904;28;20407;-85
2021/10/30 09:59:30;;;;;;;18.30;12.25;;;11.90;99.90;;;;;;4976252;28;20308;-83
2021/10/30 10:01:56;;;;;;;24.27;13.75;;;11.90;99.90;;;;;;5016621;28;20448;-83
2021/10/30 10:04:22;;;;;;;20.38;13.32;;;12.00;99.90;;;;;;4979655;28;20102;-84
2021/10/30 10:06:50;;;;;;;16.90;11.50;;;12.00;99.90;;;;;;4982881;28;20749;-81
2021/10/30 10:09:17;;;;;;;19.15;12.43;;;12.10;99.90;;;;;;5013419;28;20029;-82
2021/10/30 10:11:51;;;;;;;17.45;11.80;;;12.10;99.90;;;;;;4991285;28;20073;-83
2021/10/30 10:14:21;;;;;;;16.90;12.15;;;12.10;99.90;;;;;;5021607;28;20033;-83
2021/10/30 10:16:51;;;;;;;14.18;10.10;;;12.20;99.90;;;;;;5009580;28;20037;-83
2021/10/30 10:19:18;;;;;;;17.17;11.00;;;12.10;99.90;;;;;;5012800;28;20064;-84
2021/10/30 10:21:44;;;;;;;24.10;14.00;;;12.20;99.90;;;;;;5007098;28;20045;-85
2021/10/30 10:24:13;;;;;;;21.95;13.07;;;12.20;99.90;;;;;;4997304;28;20542;-84
2021/10/30 10:26:45;;;;;;;20.63;13.43;;;12.20;99.90;;;;;;5004596;28;20191;-87
2021/10/30 10:29:12;;;;;;;16.37;12.13;;;12.20;99.90;;;;;;5017754;28;20038;-86
2021/10/30 10:31:51;;;;;;;17.20;12.00;;;12.20;99.90;;;;;;5008322;28;20037;-86
2021/10/30 10:34:28;;;;;;;18.70;12.75;;;12.20;99.90;;;;;;4999683;28;20034;-85
2021/10/30 10:37:12;;;;;;;17.77;11.02;;;12.20;99.90;;;;;;5018232;28;20132;-85
2021/10/30 10:39:43;;;;;;;14.32;8.82;;;12.20;99.90;;;;;;5019793;28;20149;-85
2021/10/30 10:42:13;;;;;;;20.30;12.55;;;12.20;99.90;;;;;;5020203;28;20042;-88
2021/10/30 10:44:42;;;;;;;18.05;12.25;;;12.30;99.90;;;;;;5027653;28;20419;-82
2021/10/30 10:47:41;;;;;;;16.10;11.60;;;12.20;99.90;;;;;;5007948;28;20042;-86
2021/10/30 10:50:14;;;;;;;19.45;11.00;;;12.20;99.90;;;;;;4990270;28;20363;-84
2021/10/30 10:53:07;;;;;;;19.40;12.43;;;12.20;99.90;;;;;;5003395;28;20045;-85
2021/10/30 10:55:34;;;;;;;;;;;12.20;99.90;;;;;;5015067;28;20037;-86
2021/10/30 10:58:08;;;;;;;16.52;11.30;;;12.20;99.90;;;;;;4994952;28;19990;-85
2021/10/30 11:00:35;;;;;;;18.80;12.07;;;12.20;99.90;;;;;;5013146;28;20037;-86
2021/10/30 11:03:02;;;;;;;16.30;12.02;;;12.20;99.90;;;;;;4986435;28;20049;-84
2021/10/30 11:05:29;;;;;;;17.17;11.60;;;12.20;99.90;;;;;;4978047;28;20744;-83
2021/10/30 11:07:55;;;;;;;16.95;11.00;;;12.20;99.90;;;;;;4986352;28;20963;-81
2021/10/30 11:10:26;;;;;;;21.88;12.73;;;12.20;99.90;;;;;;5008445;28;20069;-84
2021/10/30 11:12:58;;;;;;;20.00;13.05;;;12.20;99.90;;;;;;4980925;28;20041;-84
2021/10/30 11:15:46;;;;;;;17.80;11.95;;;12.20;99.90;;;;;;4986498;28;20511;-84
2021/10/30 11:21:17;;;;;;;19.10;12.27;;;12.20;99.90;;;;;;5000898;28;20085;-85
2021/10/30 11:23:56;;;;;;;20.45;13.25;;;12.20;99.90;;;;;;5012765;28;20956;-85
2021/10/30 11:26:26;;;;;;;20.98;13.50;;;12.20;99.90;;;;;;5002989;28;20100;-84
2021/10/30 11:28:53;;;;;;;20.67;13.25;;;12.30;99.90;;;;;;4998173;28;20037;-85
2021/10/30 11:31:20;;;;;;;26.65;13.73;;;12.30;99.90;;;;;;4970583;28;20049;-83
2021/10/30 11:34:01;;;;;;;18.23;12.13;;;12.30;99.90;;;;;;4996503;28;20045;-84
2021/10/30 11:36:27;;;;;;;18.80;12.15;;;12.30;99.90;;;;;;5003635;28;20203;-84
2021/10/30 11:38:56;;;;;;;15.15;10.82;;;12.30;99.90;;;;;;4973036;28;20076;-81
2021/10/30 11:41:30;;;;;;;21.60;11.85;;;12.30;99.90;;;;;;4995514;28;20084;-84
2021/10/30 11:44:14;;;;;;;20.35;11.48;;;12.30;99.90;;;;;;5012168;28;20057;-82
2021/10/30 11:46:45;;;;;;;15.90;11.52;;;12.40;99.90;;;;;;4999132;28;20042;-85
2021/10/30 11:49:22;;;;;;;15.77;11.10;;;12.40;99.90;;;;;;4997149;28;20053;-83
2021/10/30 11:51:49;;;;;;;19.15;12.38;;;12.40;99.90;;;;;;4993983;28;20115;-83
2021/10/30 11:54:15;;;;;;;17.33;11.93;;;12.40;99.90;;;;;;4957915;28;20771;-83
2021/10/30 11:56:44;;;;;;;19.92;12.20;;;12.40;99.90;;;;;;4999010;28;20060;-84
2021/10/30 11:59:10;;;;;;;19.20;10.23;;;12.40;99.90;;;;;;5006151;28;20040;-88
2021/10/30 12:01:38;;;;;;;14.43;11.45;;;12.40;99.90;;;;;;4997292;28;20042;-84
2021/10/30 12:04:24;;;;;;;16.50;11.32;;;12.40;99.90;;;;;;5009787;28;20041;-85
2021/10/30 12:07:01;;;;;;;15.98;11.13;;;12.40;99.90;;;;;;4984745;28;20045;-86
2021/10/30 12:09:32;;;;;;;18.17;12.40;;;12.40;99.90;;;;;;5008389;28;20045;-85
2021/10/30 12:12:20;;;;;;;16.73;10.93;;;12.40;99.90;;;;;;4990408;28;20492;-84
2021/10/30 12:14:57;;;;;;;16.02;11.65;;;12.40;99.90;;;;;;5018735;28;21425;-84
2021/10/30 12:17:25;;;;;;;20.00;12.32;;;12.40;99.90;;;;;;4993654;28;20423;-83
2021/10/30 12:19:58;;;;;;;19.15;11.00;;;12.40;99.90;;;;;;4992785;28;20033;-83
2021/10/30 12:22:25;;;;;;;17.42;11.30;;;12.50;99.90;;;;;;4995421;28;20034;-83
2021/10/30 12:25:05;;;;;;;15.73;10.05;;;12.50;99.90;;;;;;4988657;28;20049;-85
2021/10/30 12:27:38;;;;;;;16.33;10.63;;;12.50;99.90;;;;;;5002950;28;20033;-83
2021/10/30 12:30:07;;;;;;;17.63;10.90;;;12.50;99.90;;;;;;4991373;28;20125;-84
2021/10/30 12:32:43;;;;;;;15.68;10.57;;;12.60;99.90;;;;;;5004981;28;20077;-85
2021/10/30 12:35:24;;;;;;;20.23;11.35;;;12.60;99.90;;;;;;4996439;28;20149;-85